createdAt,value
2022-11-29T00:02:13.062Z,33.92
2022-11-29T00:04:43.209Z,34.70
2022-11-29T00:07:11.923Z,34.95
2022-11-29T00:09:40.461Z,36.22
2022-11-29T00:12:14.863Z,36.15
2022-11-29T00:14:44.198Z,33.95
2022-11-29T00:17:23.829Z,36.17
2022-11-29T00:20:00.089Z,38.53
2022-11-29T00:22:42.095Z,34.83
2022-11-29T00:25:16.438Z,36.00
2022-11-29T00:27:47.696Z,36.35
2022-11-29T00:30:16.945Z,33.47
2022-11-29T00:33:10.635Z,36.95
2022-11-29T00:35:39.577Z,37.38
2022-11-29T00:38:09.102Z,36.95
2022-11-29T00:40:37.783Z,37.15
2022-11-29T00:43:10.456Z,37.30
2022-11-29T00:45:39.132Z,36.65
2022-11-29T00:48:09.182Z,37.80
2022-11-29T00:50:50.019Z,35.30
2022-11-29T00:53:32.054Z,36.65
2022-11-29T00:56:03.728Z,36.63
2022-11-29T00:58:44.481Z,37.47
2022-11-29T01:01:21.996Z,35.95
2022-11-29T01:04:07.844Z,35.92
2022-11-29T01:06:51.104Z,36.75
2022-11-29T01:09:28.779Z,37.22
2022-11-29T01:11:58.876Z,38.03
2022-11-29T01:14:27.907Z,35.58
2022-11-29T01:17:06.524Z,35.53
2022-11-29T01:19:49.291Z,35.88
2022-11-29T01:22:19.306Z,35.65
2022-11-29T01:24:47.733Z,36.42
2022-11-29T01:27:16.793Z,34.20
2022-11-29T01:29:47.417Z,34.10
2022-11-29T01:32:17.509Z,35.38
2022-11-29T01:34:46.420Z,38.33
2022-11-29T01:37:19.151Z,36.53
2022-11-29T01:39:52.520Z,35.22
2022-11-29T01:42:32.955Z,36.42
2022-11-29T01:45:14.490Z,33.63
2022-11-29T01:47:50.254Z,36.13
2022-11-29T01:50:18.744Z,34.78
2022-11-29T01:52:47.300Z,35.90
2022-11-29T01:55:24.214Z,34.17
2022-11-29T01:58:04.734Z,33.95
2022-11-29T02:00:44.761Z,30.65
2022-11-29T02:03:31.731Z,31.55
2022-11-29T02:06:15.573Z,31.23
2022-11-29T02:08:55.928Z,32.42
2022-11-29T02:11:50.233Z,32.17
2022-11-29T02:14:35.503Z,33.22
2022-11-29T02:17:11.451Z,36.05
2022-11-29T02:19:53.433Z,35.53
2022-11-29T02:22:26.518Z,34.65
2022-11-29T02:25:03.302Z,36.90
2022-11-29T02:27:33.874Z,37.53
2022-11-29T02:30:14.223Z,38.30
2022-11-29T02:32:42.527Z,40.25
2022-11-29T02:35:29.085Z,38.50
2022-11-29T02:38:15.969Z,40.97
2022-11-29T02:40:50.222Z,41.20
2022-11-29T02:43:24.207Z,43.17
2022-11-29T02:45:54.979Z,43.05
2022-11-29T02:48:42.561Z,43.35
2022-11-29T02:51:27.093Z,45.67
2022-11-29T02:54:16.733Z,44.15
2022-11-29T02:56:47.382Z,43.08
2022-11-29T02:59:21.942Z,42.72
2022-11-29T03:01:50.444Z,41.90
2022-11-29T03:04:28.500Z,43.67
2022-11-29T03:07:03.360Z,45.30
2022-11-29T03:09:40.031Z,48.78
2022-11-29T03:12:27.752Z,52.67
2022-11-29T03:14:58.578Z,47.88
2022-11-29T03:17:54.159Z,49.38
2022-11-29T03:20:34.620Z,45.90
2022-11-29T03:23:42.997Z,45.47
2022-11-29T03:26:18.744Z,47.17
2022-11-29T03:28:55.974Z,44.20
2022-11-29T03:31:31.288Z,49.05
2022-11-29T03:33:59.591Z,43.03
2022-11-29T03:36:55.690Z,46.33
2022-11-29T03:39:43.876Z,48.25
2022-11-29T03:42:17.083Z,46.88
2022-11-29T03:44:57.566Z,47.88
2022-11-29T03:47:37.729Z,49.78
2022-11-29T03:50:14.473Z,44.63
2022-11-29T03:53:02.052Z,50.88
2022-11-29T03:55:46.340Z,44.65
2022-11-29T03:58:17.492Z,49.42
2022-11-29T04:00:48.701Z,46.97
2022-11-29T04:03:41.810Z,47.25
2022-11-29T04:06:29.092Z,48.15
2022-11-29T04:09:16.084Z,48.15
2022-11-29T04:11:59.194Z,49.95
2022-11-29T04:14:36.210Z,50.10
2022-11-29T04:17:27.290Z,49.67
2022-11-29T04:20:27.710Z,50.45
2022-11-29T04:22:58.342Z,50.13
2022-11-29T04:25:29.664Z,48.15
2022-11-29T04:28:28.007Z,50.78
2022-11-29T04:31:05.578Z,48.25
2022-11-29T04:33:37.709Z,48.50
2022-11-29T04:36:27.277Z,48.95
2022-11-29T04:39:12.681Z,44.88
2022-11-29T04:41:44.331Z,43.97
2022-11-29T04:44:15.881Z,41.78
2022-11-29T04:46:50.265Z,43.08
2022-11-29T04:49:28.192Z,39.47
2022-11-29T04:52:14.930Z,41.35
2022-11-29T04:55:03.716Z,41.40
2022-11-29T04:57:58.781Z,38.72
2022-11-29T05:00:27.140Z,38.55
2022-11-29T05:03:00.549Z,35.58
2022-11-29T05:05:43.073Z,35.10
2022-11-29T05:08:22.364Z,38.22
2022-11-29T05:11:15.486Z,35.15
2022-11-29T05:13:43.687Z,37.13
2022-11-29T05:16:22.155Z,33.67
2022-11-29T05:19:08.062Z,33.47
2022-11-29T05:21:42.554Z,31.70
2022-11-29T05:24:18.279Z,29.58
2022-11-29T05:27:00.029Z,32.40
2022-11-29T05:29:38.938Z,28.48
2022-11-29T05:32:21.125Z,30.23
2022-11-29T05:34:51.931Z,28.70
2022-11-29T05:37:24.419Z,28.40
2022-11-29T05:39:52.485Z,28.75
2022-11-29T05:42:44.285Z,28.88
2022-11-29T05:45:26.404Z,27.77
2022-11-29T05:48:03.178Z,27.08
2022-11-29T05:50:39.906Z,26.85
2022-11-29T05:53:12.438Z,29.55
2022-11-29T05:55:45.541Z,25.77
2022-11-29T05:58:35.688Z,26.38
2022-11-29T06:01:15.774Z,27.00
2022-11-29T06:04:07.994Z,28.33
2022-11-29T06:06:47.057Z,23.55
2022-11-29T06:09:15.256Z,27.65
2022-11-29T06:11:46.480Z,23.30
2022-11-29T06:14:27.527Z,23.40
2022-11-29T06:17:11.262Z,22.75
2022-11-29T06:19:59.584Z,21.90
2022-11-29T06:22:33.862Z,21.90
2022-11-29T06:25:08.188Z,22.08
2022-11-29T06:27:43.319Z,23.60
2022-11-29T06:30:16.134Z,25.50
2022-11-29T06:33:10.207Z,30.33
2022-11-29T06:35:48.237Z,32.95
2022-11-29T06:38:20.140Z,35.78
2022-11-29T06:41:00.142Z,32.20
2022-11-29T06:43:35.000Z,39.75
2022-11-29T06:46:32.480Z,39.08
2022-11-29T06:49:25.190Z,40.05
2022-11-29T06:52:22.273Z,39.67
2022-11-29T06:54:57.408Z,41.15
2022-11-29T06:57:48.757Z,38.92
2022-11-29T07:00:22.693Z,38.33
2022-11-29T07:03:20.743Z,42.20
2022-11-29T07:05:54.718Z,38.72
2022-11-29T07:08:24.445Z,39.60
2022-11-29T07:10:56.682Z,39.23
2022-11-29T07:13:32.116Z,38.90
2022-11-29T07:16:27.013Z,42.42
2022-11-29T07:19:13.572Z,39.65
2022-11-29T07:21:53.032Z,43.60
2022-11-29T07:24:42.401Z,42.08
2022-11-29T07:27:14.063Z,38.78
2022-11-29T07:29:50.138Z,41.72
2022-11-29T07:32:21.476Z,40.42
2022-11-29T07:35:10.571Z,41.92
2022-11-29T07:37:51.383Z,39.90
2022-11-29T07:40:37.227Z,37.63
2022-11-29T07:43:18.576Z,35.40
2022-11-29T07:45:48.267Z,38.53
2022-11-29T07:48:19.107Z,38.83
2022-11-29T07:50:48.462Z,38.97
2022-11-29T07:53:18.515Z,39.45
2022-11-29T07:55:47.814Z,38.20
2022-11-29T07:58:19.661Z,38.03
2022-11-29T08:01:00.198Z,41.13
2022-11-29T08:03:44.992Z,38.65
2022-11-29T08:06:32.652Z,38.22
2022-11-29T08:09:18.469Z,34.10
2022-11-29T08:11:58.010Z,35.90
2022-11-29T08:14:36.895Z,37.67
2022-11-29T08:17:25.634Z,36.80
2022-11-29T08:20:16.840Z,37.22
2022-11-29T08:23:00.618Z,37.05
2022-11-29T08:25:32.366Z,37.22
2022-11-29T08:28:06.588Z,41.45
2022-11-29T08:30:39.917Z,35.13
2022-11-29T08:33:27.488Z,37.38
2022-11-29T08:36:11.420Z,34.42
2022-11-29T08:39:05.977Z,38.30
2022-11-29T08:41:56.444Z,36.17
2022-11-29T08:44:44.774Z,32.60
2022-11-29T08:47:34.251Z,37.08
2022-11-29T08:50:03.429Z,32.80
2022-11-29T08:52:51.065Z,37.22
2022-11-29T08:55:37.690Z,35.85
2022-11-29T08:58:21.408Z,34.28
2022-11-29T09:01:03.847Z,33.90
2022-11-29T09:04:02.403Z,35.80
2022-11-29T09:06:49.752Z,35.60
2022-11-29T09:09:32.765Z,33.35
2022-11-29T09:12:16.765Z,40.88
2022-11-29T09:15:06.459Z,35.55
2022-11-29T09:17:41.500Z,34.47
2022-11-29T09:20:13.130Z,38.47
2022-11-29T09:22:47.728Z,40.60
2022-11-29T09:25:18.813Z,39.63
2022-11-29T09:27:48.231Z,38.78
2022-11-29T09:30:23.836Z,38.42
2022-11-29T09:33:11.743Z,38.40
2022-11-29T09:35:43.058Z,44.42
2022-11-29T09:38:12.980Z,44.65
2022-11-29T09:40:49.476Z,41.33
2022-11-29T09:43:18.392Z,45.50
2022-11-29T09:45:50.632Z,42.10
2022-11-29T09:48:25.043Z,42.75
2022-11-29T09:50:59.158Z,40.67
2022-11-29T09:53:33.257Z,45.35
2022-11-29T09:56:17.244Z,42.30
2022-11-29T09:58:45.304Z,45.70
2022-11-29T10:01:23.186Z,42.85
2022-11-29T10:03:53.776Z,43.38
2022-11-29T10:06:32.060Z,45.10
2022-11-29T10:09:22.971Z,40.92
2022-11-29T10:11:57.335Z,42.47
2022-11-29T10:14:28.080Z,45.20
2022-11-29T10:17:01.070Z,38.42
2022-11-29T10:19:33.174Z,41.42
2022-11-29T10:22:16.651Z,41.33
2022-11-29T10:25:00.295Z,33.50
2022-11-29T10:27:30.907Z,37.38
2022-11-29T10:30:02.462Z,36.33
2022-11-29T10:32:42.547Z,38.97
2022-11-29T10:35:18.596Z,34.47
2022-11-29T10:38:07.765Z,39.00
2022-11-29T10:41:21.730Z,36.33
2022-11-29T10:43:51.365Z,33.65
2022-11-29T10:46:42.251Z,33.03
2022-11-29T10:49:17.969Z,34.13
2022-11-29T10:51:47.135Z,32.25
2022-11-29T10:54:30.965Z,31.15
2022-11-29T10:59:32.925Z,30.25
2022-11-29T11:02:04.103Z,25.08
2022-11-29T11:04:36.288Z,22.52
2022-11-29T11:07:07.138Z,30.00
2022-11-29T11:09:41.676Z,31.48
2022-11-29T11:12:16.106Z,32.35
2022-11-29T11:14:45.749Z,32.70
2022-11-29T11:17:25.879Z,31.52
2022-11-29T11:20:00.888Z,33.28
2022-11-29T11:22:39.864Z,32.78
2022-11-29T11:25:34.653Z,32.42
2022-11-29T11:28:21.845Z,32.78
2022-11-29T11:30:55.800Z,32.15
2022-11-29T11:33:32.829Z,31.65
2022-11-29T11:36:07.600Z,35.97
2022-11-29T11:38:38.049Z,35.08
2022-11-29T11:41:45.181Z,32.88
2022-11-29T11:47:35.986Z,36.58
2022-11-29T11:50:13.317Z,36.30
2022-11-29T11:53:06.122Z,39.78
2022-11-29T11:55:44.719Z,38.72
2022-11-29T11:58:28.556Z,39.90
2022-11-29T12:01:04.684Z,38.85
2022-11-29T12:06:29.440Z,42.17
2022-11-29T12:09:04.848Z,43.92
2022-11-29T12:11:42.246Z,44.42
2022-11-29T12:14:19.399Z,41.50
2022-11-29T12:16:49.885Z,42.92
2022-11-29T12:19:31.489Z,44.13
2022-11-29T12:22:04.061Z,42.33
2022-11-29T12:24:36.844Z,44.70
2022-11-29T12:27:06.725Z,37.47
2022-11-29T12:29:48.168Z,37.28
2022-11-29T12:32:38.266Z,37.28
2022-11-29T12:35:30.785Z,35.97
2022-11-29T12:38:08.024Z,37.17
2022-11-29T12:40:37.178Z,36.08
2022-11-29T12:43:10.979Z,37.90
2022-11-29T12:46:02.393Z,38.78
2022-11-29T12:48:30.728Z,35.60
2022-11-29T12:50:59.368Z,35.05
2022-11-29T12:53:38.180Z,32.92
2022-11-29T12:56:15.467Z,38.83
2022-11-29T12:58:46.394Z,38.50
2022-11-29T13:01:17.315Z,38.15
2022-11-29T13:03:59.799Z,37.78
2022-11-29T13:06:37.122Z,37.63
2022-11-29T13:09:20.699Z,39.30
2022-11-29T13:11:59.320Z,37.42
2022-11-29T13:14:53.127Z,35.40
2022-11-29T13:17:47.921Z,40.28
2022-11-29T13:20:22.539Z,35.67
2022-11-29T13:23:09.504Z,38.17
2022-11-29T13:25:50.171Z,35.85
2022-11-29T13:28:26.447Z,38.25
2022-11-29T13:31:06.346Z,40.75
2022-11-29T13:34:06.948Z,41.38
2022-11-29T13:37:02.068Z,41.13
2022-11-29T13:39:39.755Z,39.35
2022-11-29T13:42:13.954Z,41.90
2022-11-29T13:44:42.114Z,41.72
2022-11-29T13:47:19.215Z,39.33
2022-11-29T13:49:54.915Z,40.58
2022-11-29T13:52:26.563Z,41.97
2022-11-29T13:55:07.331Z,38.95
2022-11-29T14:00:46.462Z,38.87
2022-11-29T14:03:33.678Z,39.78
2022-11-29T14:06:04.159Z,38.70
2022-11-29T14:09:17.915Z,39.30
2022-11-29T14:12:00.816Z,36.28
2022-11-29T14:14:32.404Z,36.80
2022-11-29T14:17:03.836Z,37.20
2022-11-29T14:19:34.418Z,36.55
2022-11-29T14:22:02.828Z,37.13
2022-11-29T14:24:35.278Z,39.95
2022-11-29T14:27:10.143Z,38.60
2022-11-29T14:29:50.308Z,38.55
2022-11-29T14:32:23.951Z,39.38
2022-11-29T14:35:11.102Z,38.78
2022-11-29T14:37:57.809Z,39.80
2022-11-29T14:40:38.126Z,39.95
2022-11-29T14:43:23.847Z,44.10
2022-11-29T14:46:08.403Z,43.58
2022-11-29T14:48:56.295Z,39.28
2022-11-29T14:51:36.128Z,43.58
2022-11-29T14:54:21.813Z,38.90
2022-11-29T14:57:20.305Z,43.97
2022-11-29T14:59:52.498Z,43.53
2022-11-29T15:02:39.649Z,44.10
2022-11-29T15:05:14.059Z,40.40
2022-11-29T15:07:56.943Z,39.55
2022-11-29T15:10:32.898Z,45.67
2022-11-29T15:13:01.515Z,50.05
2022-11-29T15:15:50.302Z,42.03
2022-11-29T15:18:34.986Z,39.97
2022-11-29T15:21:15.898Z,37.97
2022-11-29T15:23:44.567Z,35.63
2022-11-29T15:26:20.192Z,34.92
2022-11-29T15:28:53.479Z,32.70
2022-11-29T15:31:23.152Z,32.55
2022-11-29T15:33:54.004Z,30.80
2022-11-29T15:36:24.272Z,30.42
2022-11-29T15:39:06.392Z,31.50
2022-11-29T15:41:53.140Z,31.55
2022-11-29T15:44:33.630Z,29.17
2022-11-29T15:47:26.276Z,30.33
2022-11-29T15:49:55.441Z,27.35
2022-11-29T15:52:38.034Z,29.48
2022-11-29T15:55:14.917Z,30.10
2022-11-29T15:57:56.174Z,29.25
2022-11-29T16:00:33.809Z,33.75
2022-11-29T16:03:26.290Z,32.22
2022-11-29T16:06:29.357Z,28.45
2022-11-29T16:09:01.138Z,27.02
2022-11-29T16:11:32.299Z,25.02
2022-11-29T16:14:05.898Z,24.15
2022-11-29T16:16:35.700Z,26.83
2022-11-29T16:19:22.194Z,24.58
2022-11-29T16:22:23.724Z,23.52
2022-11-29T16:25:06.301Z,23.85
2022-11-29T16:27:47.598Z,24.45
2022-11-29T16:30:27.382Z,26.05
2022-11-29T16:33:16.703Z,24.40
2022-11-29T16:36:15.169Z,24.40
2022-11-29T16:38:55.214Z,23.48
2022-11-29T16:41:40.122Z,22.58
2022-11-29T16:44:40.633Z,25.77
2022-11-29T16:47:17.005Z,24.23
2022-11-29T16:50:03.481Z,30.40
2022-11-29T16:52:46.466Z,25.15
2022-11-29T16:55:20.157Z,23.30
2022-11-29T16:57:49.512Z,25.13
2022-11-29T17:00:23.522Z,24.42
2022-11-29T17:03:11.287Z,25.85
2022-11-29T17:05:44.592Z,24.73
2022-11-29T17:08:16.021Z,26.92
2022-11-29T17:10:50.425Z,28.35
2022-11-29T17:13:19.207Z,26.45
2022-11-29T17:16:02.084Z,27.88
2022-11-29T17:18:47.936Z,24.92
2022-11-29T17:21:30.117Z,24.50
2022-11-29T17:24:19.189Z,26.83
2022-11-29T17:27:02.800Z,27.05
2022-11-29T17:29:50.397Z,26.02
2022-11-29T17:32:28.196Z,28.02
2022-11-29T17:35:10.310Z,27.65
2022-11-29T17:37:59.592Z,26.13
2022-11-29T17:40:29.017Z,34.38
2022-11-29T17:42:57.640Z,31.58
2022-11-29T17:45:27.011Z,28.90
2022-11-29T17:48:10.998Z,27.33
2022-11-29T17:50:39.991Z,33.80
2022-11-29T17:53:08.866Z,31.25
2022-11-29T17:55:37.907Z,30.17
2022-11-29T18:01:03.691Z,28.05
2022-11-29T18:03:48.457Z,27.60
2022-11-29T18:06:36.162Z,29.38
2022-11-29T18:09:20.477Z,124.28
2022-11-29T18:11:59.479Z,44.78
2022-11-29T18:14:41.577Z,33.78
2022-11-29T18:17:29.190Z,27.02
2022-11-29T18:20:09.991Z,27.38
2022-11-29T18:23:03.607Z,28.98
2022-11-29T18:25:58.407Z,29.45
2022-11-29T18:28:37.490Z,29.33
2022-11-29T18:31:28.888Z,29.85
2022-11-29T18:34:16.612Z,31.20
2022-11-29T18:37:01.814Z,29.77
2022-11-29T18:39:47.931Z,31.60
2022-11-29T18:42:16.737Z,37.70
2022-11-29T18:44:45.325Z,36.78
2022-11-29T18:47:14.582Z,26.23
2022-11-29T18:49:43.407Z,26.05
2022-11-29T18:52:12.093Z,26.50
2022-11-29T18:54:40.462Z,32.67
2022-11-29T18:57:12.090Z,27.15
2022-11-29T18:59:40.670Z,26.73
2022-11-29T19:02:12.187Z,25.55
2022-11-29T19:04:40.650Z,28.00
2022-11-29T19:07:09.106Z,29.48
2022-11-29T19:09:39.871Z,27.23
2022-11-29T19:12:10.306Z,30.60
2022-11-29T19:14:41.818Z,31.10
2022-11-29T19:17:31.629Z,32.60
2022-11-29T19:20:14.156Z,32.92
2022-11-29T19:23:01.913Z,36.65
2022-11-29T19:25:46.235Z,32.80
2022-11-29T19:28:18.598Z,32.17
2022-11-29T19:30:59.630Z,29.38
2022-11-29T19:33:45.004Z,30.75
2022-11-29T19:36:28.593Z,29.60
2022-11-29T19:38:57.373Z,27.17
2022-11-29T19:41:28.198Z,28.58
2022-11-29T19:44:00.269Z,28.80
2022-11-29T19:46:39.007Z,28.50
2022-11-29T19:49:11.002Z,29.58
2022-11-29T19:51:42.105Z,32.05
2022-11-29T19:54:13.112Z,29.75
2022-11-29T19:56:42.188Z,31.02
2022-11-29T19:59:10.869Z,31.60
2022-11-29T20:01:41.938Z,29.83
2022-11-29T20:04:16.497Z,30.45
2022-11-29T20:06:50.043Z,31.90
2022-11-29T20:09:19.298Z,31.67
2022-11-29T20:11:48.370Z,31.48
2022-11-29T20:14:16.942Z,30.52
2022-11-29T20:16:45.950Z,30.40
2022-11-29T20:19:15.798Z,34.95
2022-11-29T20:22:03.497Z,31.33
2022-11-29T20:24:54.660Z,35.63
2022-11-29T20:27:42.204Z,33.75
2022-11-29T20:30:29.859Z,31.85
2022-11-29T20:33:20.799Z,29.65
2022-11-29T20:36:06.592Z,31.30
2022-11-29T20:38:56.235Z,32.17
2022-11-29T20:41:58.585Z,32.13
2022-11-29T20:44:45.284Z,30.65
2022-11-29T20:47:21.159Z,31.00
2022-11-29T20:50:00.576Z,31.75
2022-11-29T20:52:48.500Z,31.83
2022-11-29T20:55:36.678Z,32.78
2022-11-29T20:58:21.908Z,35.03
2022-11-29T21:00:57.303Z,35.42
2022-11-29T21:03:42.361Z,33.20
2022-11-29T21:06:11.274Z,32.88
2022-11-29T21:08:40.004Z,33.78
2022-11-29T21:11:10.215Z,34.45
2022-11-29T21:13:39.578Z,34.83
2022-11-29T21:16:12.103Z,37.42
2022-11-29T21:18:41.033Z,34.85
2022-11-29T21:21:40.816Z,36.47
2022-11-29T21:24:46.175Z,35.63
2022-11-29T21:27:25.450Z,35.53
2022-11-29T21:29:56.200Z,34.72
2022-11-29T21:32:27.669Z,34.30
2022-11-29T21:35:01.475Z,33.40
2022-11-29T21:37:32.141Z,36.35
2022-11-29T21:40:02.823Z,34.72
2022-11-29T21:42:38.706Z,34.88
2022-11-29T21:45:15.104Z,33.70
2022-11-29T21:48:00.348Z,36.15
2022-11-29T21:50:31.534Z,39.67
2022-11-29T21:53:02.469Z,36.05
2022-11-29T21:55:32.750Z,40.20
2022-11-29T21:58:01.238Z,36.50
2022-11-29T22:00:35.974Z,41.67
2022-11-29T22:03:24.976Z,41.85
2022-11-29T22:06:02.090Z,42.65
2022-11-29T22:08:51.701Z,38.80
2022-11-29T22:11:35.431Z,41.67
2022-11-29T22:14:19.901Z,43.22
2022-11-29T22:17:04.402Z,42.17
2022-11-29T22:19:39.365Z,42.53
2022-11-29T22:22:10.942Z,43.15
2022-11-29T22:24:44.839Z,39.38
2022-11-29T22:27:21.490Z,42.78
2022-11-29T22:29:50.247Z,42.65
2022-11-29T22:32:22.313Z,40.75
2022-11-29T22:35:07.586Z,42.72
2022-11-29T22:37:46.730Z,42.35
2022-11-29T22:40:35.270Z,43.08
2022-11-29T22:43:18.813Z,41.03
2022-11-29T22:46:12.398Z,41.85
2022-11-29T22:48:52.754Z,43.63
2022-11-29T22:51:35.030Z,42.10
2022-11-29T22:54:10.583Z,41.53
2022-11-29T22:56:44.673Z,42.22
2022-11-29T22:59:13.379Z,38.22
2022-11-29T23:01:43.237Z,40.72
2022-11-29T23:04:13.272Z,40.13
2022-11-29T23:06:45.513Z,41.70
2022-11-29T23:09:30.310Z,41.10
2022-11-29T23:12:07.384Z,40.60
2022-11-29T23:14:38.771Z,41.35
2022-11-29T23:17:07.844Z,42.13
2022-11-29T23:19:53.255Z,40.28
2022-11-29T23:22:28.689Z,40.73
2022-11-29T23:25:07.849Z,42.90
2022-11-29T23:27:55.093Z,41.30
2022-11-29T23:30:35.799Z,39.50
2022-11-29T23:33:24.010Z,40.03
2022-11-29T23:36:07.011Z,40.13
2022-11-29T23:38:54.558Z,44.97
2022-11-29T23:41:24.135Z,43.28
2022-11-29T23:43:53.038Z,41.47
2022-11-29T23:46:25.306Z,36.60
2022-11-29T23:48:56.274Z,37.72
2022-11-29T23:51:38.971Z,41.10
2022-11-29T23:54:24.055Z,38.13
2022-11-29T23:57:08.940Z,39.10
2022-11-29T23:59:51.605Z,39.88
